Time;durP1;ratioP1;P1;durP2;ratioP2;P2;SDS_P1;SDS_P2;PMS_P1;PMS_P2;Temp;Humidity;BMP_temperature;BMP_pressure;BME280_temperature;BME280_humidity;BME280_pressure;Samples;Min_cycle;Max_cycle;Signal;HPM_P1;HPM_P2
2022/01/22 00:00:54;;;;;;;4.25;0.98;;;;;;;17.10;47.83;103435.22;5036393;28;20033;-77
2022/01/22 00:03:19;;;;;;;2.97;1.20;;;;;;;17.11;47.91;103436.09;5053471;28;20040;-77
2022/01/22 00:05:45;;;;;;;4.15;0.88;;;;;;;17.12;47.78;103445.69;5053339;28;20029;-76
2022/01/22 00:08:11;;;;;;;2.83;0.80;;;;;;;17.11;47.88;103436.97;5053535;28;20021;-77
2022/01/22 00:10:40;;;;;;;2.55;1.02;;;;;;;17.13;47.87;103437.91;5053502;28;20032;-77
2022/01/22 00:14:23;;;;;;;2.28;0.80;;;;;;;17.12;47.90;103433.56;5036420;28;20040;-77
2022/01/22 00:15:54;;;;;;;7.05;0.90;;;;;;;17.12;47.99;103433.56;5053446;28;20033;-77
2022/01/22 00:18:20;;;;;;;2.90;0.90;;;;;;;17.13;47.72;103424.03;5036444;28;20033;-77
2022/01/22 00:20:46;;;;;;;2.67;0.90;;;;;;;17.11;47.82;103423.97;5036165;28;20040;-77
2022/01/22 00:23:15;;;;;;;2.00;0.85;;;;;;;17.11;47.92;103421.38;5036150;28;20063;-77
2022/01/22 00:25:41;;;;;;;1.95;0.95;;;;;;;17.11;47.67;103420.50;5036348;28;20108;-77
2022/01/22 00:28:07;;;;;;;4.13;1.00;;;;;;;17.11;47.87;103417.88;5035512;28;20100;-78
2022/01/22 00:30:32;;;;;;;1.85;0.93;;;;;;;17.10;47.98;103426.53;5053594;28;20032;-77
2022/01/22 00:32:58;;;;;;;2.97;1.02;;;;;;;17.09;47.85;103427.34;5035349;28;20043;-77
2022/01/22 00:35:24;;;;;;;2.67;0.85;;;;;;;17.09;47.77;103420.41;5053476;28;20056;-76
2022/01/22 00:37:51;;;;;;;2.55;1.00;;;;;;;17.09;47.81;103424.75;5053774;28;20056;-77
2022/01/22 00:40:18;;;;;;;4.00;0.90;;;;;;;17.09;47.71;103429.94;5050852;28;20048;-77
2022/01/22 00:42:45;;;;;;;1.95;1.00;;;;;;;17.09;47.50;103435.16;5057149;28;20032;-77
2022/01/22 00:45:12;;;;;;;2.40;0.80;;;;;;;17.08;47.67;103425.59;5073620;28;20024;-77
2022/01/22 00:47:37;;;;;;;4.25;1.00;;;;;;;17.06;47.86;103421.22;5055901;28;20093;-77
2022/01/22 00:50:05;;;;;;;1.92;0.73;;;;;;;17.05;47.69;103422.06;5055229;28;20403;-78
2022/01/22 00:52:31;;;;;;;2.00;0.80;;;;;;;17.06;47.88;103421.22;5073277;28;20055;-77
2022/01/22 00:54:56;;;;;;;4.38;1.05;;;;;;;17.05;47.64;103422.06;5074152;28;20024;-77
2022/01/22 00:57:22;;;;;;;1.90;0.90;;;;;;;17.05;47.56;103424.66;5057077;28;20212;-77
2022/01/22 00:59:47;;;;;;;2.30;0.85;;;;;;;17.06;47.74;103422.94;5059288;28;20033;-77
2022/01/22 01:02:12;;;;;;;2.50;1.00;;;;;;;17.04;48.05;103420.28;5059084;28;20036;-77
2022/01/22 01:04:38;;;;;;;3.47;1.00;;;;;;;17.03;47.78;103418.53;5058993;28;20114;-77
2022/01/22 01:07:04;;;;;;;2.72;1.00;;;;;;;17.03;47.90;103410.72;5076823;28;20154;-77
2022/01/22 01:09:31;;;;;;;2.33;0.80;;;;;;;17.04;47.64;103411.59;5077451;28;20055;-77
2022/01/22 01:12:02;;;;;;;2.40;0.95;;;;;;;17.04;47.78;103406.38;5077298;28;20025;-77
2022/01/22 01:14:38;;;;;;;2.63;0.73;;;;;;;17.04;47.75;103411.59;5077302;28;20029;-77
2022/01/22 01:33:59;;;;;;;3.03;1.00;;;;;;;17.02;47.64;103429.75;5076355;28;19986;-77
2022/01/22 01:35:56;;;;;;;1.75;0.75;;;;;;;17.02;47.60;103423.66;5065449;28;20033;-77
2022/01/22 01:38:23;;;;;;;2.83;0.70;;;;;;;17.01;47.69;103422.78;5076429;28;20462;-77
2022/01/22 01:41:00;;;;;;;3.25;0.90;;;;;;;17.00;47.71;103421.00;5056382;28;20453;-77
2022/01/22 01:43:32;;;;;;;2.88;0.98;;;;;;;17.00;47.82;103421.00;5056132;28;20094;-77
2022/01/22 01:45:57;;;;;;;4.30;0.82;;;;;;;17.01;47.81;103422.78;5056221;28;20036;-77
2022/01/22 01:48:27;;;;;;;2.75;0.88;;;;;;;17.00;47.78;103426.19;5056156;28;20391;-77
2022/01/22 01:50:55;;;;;;;1.83;0.80;;;;;;;17.01;47.77;103429.72;5006518;28;20471;-75
2022/01/22 01:53:42;;;;;;;3.75;0.90;;;;;;;17.00;47.76;103421.00;5056025;28;20032;-75
2022/01/22 01:57:25;;;;;;;2.90;1.00;;;;;;;17.00;47.84;103425.31;5041066;28;20039;-75
2022/01/22 01:58:52;;;;;;;2.20;0.70;;;;;;;17.01;47.74;103427.13;5041191;28;20088;-75
2022/01/22 02:01:18;;;;;;;2.08;0.90;;;;;;;17.00;47.74;103426.19;5055956;28;20085;-75
2022/01/22 02:03:43;;;;;;;1.52;0.70;;;;;;;17.00;47.69;103425.31;5038005;28;20041;-75
2022/01/22 02:06:08;;;;;;;3.00;0.80;;;;;;;17.00;47.70;103420.13;5055828;28;20028;-75
2022/01/22 02:08:34;;;;;;;2.20;0.80;;;;;;;16.99;47.82;103424.44;5054608;28;20064;-75
2022/01/22 02:11:01;;;;;;;1.77;0.70;;;;;;;16.99;47.85;103434.84;5021226;28;20029;-75
2022/01/22 02:13:46;;;;;;;1.90;0.70;;;;;;;17.00;47.66;103427.94;5037793;28;20037;-75
2022/01/22 02:24:49;;;;;;;2.38;0.88;;;;;;;16.98;47.83;103429.59;5056148;28;20407;-75
2022/01/22 02:27:15;;;;;;;2.17;0.80;;;;;;;16.97;47.73;103428.72;5055511;28;20082;-75
2022/01/22 02:29:41;;;;;;;2.03;0.90;;;;;;;16.96;47.63;103426.97;5037826;28;20032;-76
2022/01/22 02:35:11;;;;;;;1.55;0.70;;;;;;;16.97;47.85;103425.22;5041699;28;20557;-76
2022/01/22 02:37:41;;;;;;;1.92;0.80;;;;;;;16.97;47.95;103423.50;5037684;28;20040;-75
2022/01/22 02:40:24;;;;;;;2.95;0.80;;;;;;;16.98;47.76;103429.59;5052060;28;20053;-76
2022/01/22 02:42:50;;;;;;;1.77;0.70;;;;;;;16.96;47.69;103433.84;5076288;28;20024;-76
2022/01/22 02:45:21;;;;;;;3.67;0.80;;;;;;;16.97;47.73;103427.84;5060542;28;20032;-78
2022/01/22 02:47:47;;;;;;;2.10;0.73;;;;;;;16.96;47.79;103415.63;5060823;28;20029;-75
2022/01/22 02:50:14;;;;;;;1.83;0.85;;;;;;;16.97;47.89;103418.31;5041655;28;20039;-75
2022/01/22 02:52:39;;;;;;;3.60;0.70;;;;;;;16.96;47.80;103424.34;5057822;28;20062;-76
2022/01/22 02:55:08;;;;;;;2.10;0.88;;;;;;;16.95;47.64;103422.56;5078267;28;20025;-75
2022/01/22 02:57:37;;;;;;;2.42;0.70;;;;;;;16.96;47.47;103426.03;5079625;28;20031;-76
2022/01/22 03:00:06;;;;;;;2.25;0.60;;;;;;;16.96;47.85;103426.03;5045603;28;20061;-75
2022/01/22 03:02:32;;;;;;;2.40;0.90;;;;;;;16.95;47.80;103419.97;5080132;28;20034;-76
2022/01/22 03:04:57;;;;;;;2.13;0.80;;;;;;;16.95;47.77;103421.69;5079999;28;20028;-78
2022/01/22 03:07:25;;;;;;;2.35;0.70;;;;;;;16.93;47.71;103416.44;5061967;28;20033;-76
2022/01/22 03:09:53;;;;;;;2.03;0.80;;;;;;;16.95;47.81;103424.28;5062289;28;20092;-77
2022/01/22 03:20:21;;;;;;;1.50;0.60;;;;;;;16.94;47.95;103418.22;5079827;28;19958;-76
2022/01/22 03:27:56;;;;;;;3.20;0.70;;;;;;;16.95;47.66;103434.69;5078547;28;20027;-75
2022/01/22 03:30:22;;;;;;;2.38;0.80;;;;;;;16.94;48.07;103432.91;5057653;28;20422;-75
2022/01/22 03:32:51;;;;;;;2.35;0.63;;;;;;;16.94;47.90;103436.44;5076221;28;20040;-75
2022/01/22 03:37:43;;;;;;;2.15;0.80;;;;;;;16.94;47.75;103444.22;5075191;28;20109;-75
2022/01/22 03:40:12;;;;;;;3.45;0.70;;;;;;;16.93;47.74;103437.25;5056571;28;20052;-75
2022/01/22 03:42:38;;;;;;;2.35;0.77;;;;;;;16.93;47.76;103436.34;5057141;28;20504;-75
2022/01/22 03:45:06;;;;;;;2.65;0.80;;;;;;;16.91;47.88;103441.50;5056567;28;20477;-75
2022/01/22 03:47:32;;;;;;;1.08;0.50;;;;;;;16.92;48.05;103435.47;5057802;28;20466;-76
2022/01/22 03:49:57;;;;;;;0.90;0.60;;;;;;;16.93;47.81;103438.97;5059166;28;20039;-75
2022/01/22 03:52:22;;;;;;;1.85;0.60;;;;;;;16.92;47.87;103440.69;5075072;28;20024;-76
2022/01/22 03:54:48;;;;;;;2.38;0.80;;;;;;;16.92;47.60;103448.50;5060394;28;20040;-78
2022/01/22 03:57:13;;;;;;;2.83;0.60;;;;;;;16.92;47.74;103447.56;5062089;28;20368;-79
2022/01/22 03:59:39;;;;;;;2.03;0.90;;;;;;;16.91;47.73;103446.69;5079382;28;20029;-77
2022/01/22 04:02:57;;;;;;;2.55;0.70;;;;;;;16.92;47.67;103452.78;5061311;28;20031;-76
2022/01/22 04:04:54;;;;;;;1.85;0.60;;;;;;;16.91;47.69;103454.50;5077731;28;20453;-76
2022/01/22 04:09:49;;;;;;;1.95;0.63;;;;;;;16.92;47.83;103451.09;5060726;28;20119;-76
2022/01/22 04:12:21;;;;;;;2.65;0.77;;;;;;;16.90;47.74;103457.94;5045037;28;20032;-78
2022/01/22 04:14:52;;;;;;;1.98;0.70;;;;;;;16.90;47.91;103450.16;5061094;28;20032;-75
2022/01/22 04:17:37;;;;;;;1.92;0.65;;;;;;;16.91;47.82;103466.63;5062658;28;20020;-79
2022/01/22 04:25:34;;;;;;;1.90;0.68;;;;;;;16.89;47.74;103456.16;5079137;28;20044;-76
2022/01/22 04:28:00;;;;;;;1.45;0.70;;;;;;;16.89;47.90;103450.97;5061170;28;20116;-75
2022/01/22 04:30:28;;;;;;;1.90;0.75;;;;;;;16.90;47.81;103451.84;5060885;28;20097;-75
2022/01/22 04:32:53;;;;;;;3.45;0.60;;;;;;;16.89;47.82;103455.28;5058129;28;20025;-75
2022/01/22 04:35:20;;;;;;;2.40;0.77;;;;;;;16.89;47.78;103457.88;5077408;28;20033;-77
2022/01/22 04:37:46;;;;;;;2.30;0.80;;;;;;;16.88;47.95;103444.00;5042834;28;20020;-75
2022/01/22 04:40:12;;;;;;;2.65;0.80;;;;;;;16.88;47.90;103443.13;5064843;28;20091;-75
2022/01/22 04:42:39;;;;;;;1.55;0.65;;;;;;;16.88;47.86;103446.59;5057536;28;20159;-75
2022/01/22 04:45:33;;;;;;;1.63;0.70;;;;;;;16.87;47.96;103444.81;5039487;28;20028;-75
2022/01/22 04:55:40;;;;;;;3.90;0.80;;;;;;;16.86;47.89;103449.16;5040150;28;20029;-75
2022/01/22 04:58:06;;;;;;;2.65;0.70;;;;;;;16.88;48.14;103445.72;5059693;28;20092;-76
2022/01/22 05:00:34;;;;;;;2.70;0.77;;;;;;;16.88;48.07;103441.41;5039660;28;20494;-75
2022/01/22 05:03:04;;;;;;;2.85;0.80;;;;;;;16.89;48.33;103443.16;5057374;28;20047;-75
2022/01/22 05:05:30;;;;;;;2.63;0.80;;;;;;;16.89;48.04;103444.88;5039157;28;20021;-75
2022/01/22 05:07:56;;;;;;;1.95;0.73;;;;;;;16.90;48.15;103444.03;5057175;28;20031;-75
2022/01/22 05:10:21;;;;;;;1.35;0.50;;;;;;;16.91;48.24;103438.91;5023310;28;20382;-75
2022/01/22 05:12:47;;;;;;;1.25;0.50;;;;;;;16.91;48.02;103435.41;5023049;28;20041;-75
2022/01/22 05:15:16;;;;;;;2.00;0.60;;;;;;;16.92;48.23;103443.28;5039111;28;20056;-75
2022/01/22 05:17:43;;;;;;;2.50;0.70;;;;;;;16.92;48.16;103438.09;5055361;28;20029;-75
2022/01/22 05:20:18;;;;;;;4.97;0.65;;;;;;;16.92;48.32;103438.09;5056888;28;20028;-76
2022/01/22 05:25:22;;;;;;;1.42;0.60;;;;;;;16.94;48.34;103440.72;5056415;28;20112;-76
2022/01/22 05:28:05;;;;;;;1.67;0.70;;;;;;;16.94;48.20;103440.72;5056512;28;20028;-76
2022/01/22 05:38:12;;;;;;;1.35;0.60;;;;;;;16.95;48.37;103447.69;5027929;28;20044;-76
2022/01/22 05:40:37;;;;;;;1.67;0.50;;;;;;;16.95;48.44;103448.59;5037523;28;20052;-76
2022/01/22 05:43:04;;;;;;;1.85;0.50;;;;;;;16.96;48.36;103445.16;5058250;28;20066;-75
2022/01/22 05:45:29;;;;;;;2.67;0.60;;;;;;;16.96;48.29;103444.25;5058350;28;20039;-76
2022/01/22 05:47:55;;;;;;;1.55;0.65;;;;;;;16.96;48.34;103450.38;5076050;28;20025;-76
2022/01/22 05:50:33;;;;;;;1.58;0.60;;;;;;;16.96;48.62;103450.38;5058257;28;20427;-77
2022/01/22 05:53:15;;;;;;;2.42;0.70;;;;;;;16.96;48.73;103442.56;5076372;28;20029;-77
2022/01/22 06:01:06;;;;;;;1.55;0.68;;;;;;;16.96;48.37;103444.25;5082885;28;20061;-77
2022/01/22 06:03:31;;;;;;;3.55;0.75;;;;;;;16.96;48.65;103452.06;5065358;28;20032;-77
2022/01/22 06:05:56;;;;;;;1.95;0.55;;;;;;;16.96;48.53;103449.47;5065611;28;20471;-78
2022/01/22 06:08:22;;;;;;;1.92;0.60;;;;;;;16.95;48.53;103451.19;5082770;28;20359;-77
2022/01/22 06:10:54;;;;;;;2.08;0.68;;;;;;;16.96;48.65;103454.66;5063043;28;20035;-76
2022/01/22 06:13:21;;;;;;;2.33;0.60;;;;;;;16.96;48.59;103463.38;5060475;28;20027;-75
2022/01/22 06:15:46;;;;;;;1.98;0.70;;;;;;;16.95;48.53;103464.19;5061038;28;20048;-75
2022/01/22 06:18:12;;;;;;;1.80;0.50;;;;;;;16.95;48.54;103469.38;5079697;28;20067;-76
2022/01/22 06:20:37;;;;;;;2.75;0.52;;;;;;;16.95;48.54;103469.38;5078844;28;20078;-75
2022/01/22 06:23:03;;;;;;;1.70;0.60;;;;;;;16.96;48.43;103480.66;5078619;28;20475;-77
2022/01/22 06:25:29;;;;;;;2.55;0.88;;;;;;;16.94;48.45;103472.84;5078478;28;20036;-77
2022/01/22 06:27:54;;;;;;;1.20;0.70;;;;;;;16.95;48.42;103481.53;5059781;28;20021;-76
2022/01/22 06:30:20;;;;;;;0.82;0.40;;;;;;;16.95;48.38;103485.00;5059361;28;20047;-78
2022/01/22 06:32:46;;;;;;;2.75;0.50;;;;;;;16.94;48.58;103480.63;5058889;28;20101;-77
2022/01/22 06:35:12;;;;;;;1.88;0.90;;;;;;;16.93;48.21;103481.47;5058681;28;20028;-78
2022/01/22 06:37:37;;;;;;;1.17;0.52;;;;;;;16.94;48.22;103484.94;5075713;28;20021;-77
2022/01/22 06:42:32;;;;;;;3.38;0.73;;;;;;;16.95;48.30;103494.53;5075294;28;20421;-77
2022/01/22 06:44:59;;;;;;;3.35;0.60;;;;;;;16.93;48.27;103491.84;5057559;28;20104;-77
2022/01/22 06:47:26;;;;;;;2.60;0.70;;;;;;;16.93;48.21;103494.47;5041136;28;20116;-76
2022/01/22 06:49:52;;;;;;;1.30;0.60;;;;;;;16.93;48.23;103493.59;5074914;28;20028;-76
2022/01/22 06:52:18;;;;;;;1.85;0.60;;;;;;;16.94;48.36;103487.53;5057023;28;20051;-76
2022/01/22 06:54:44;;;;;;;1.42;0.52;;;;;;;16.92;48.34;103487.50;5056181;28;20498;-77
2022/01/22 06:57:10;;;;;;;1.30;0.57;;;;;;;16.93;48.21;103488.38;5056945;28;20028;-77
2022/01/22 06:59:35;;;;;;;4.97;0.60;;;;;;;16.92;48.28;103502.19;5056872;28;20467;-77
2022/01/22 07:02:01;;;;;;;2.65;0.60;;;;;;;16.93;48.31;103498.78;5074641;28;20028;-77
2022/01/22 07:04:27;;;;;;;2.33;0.63;;;;;;;16.92;48.39;103503.13;5056985;28;20036;-78
2022/01/22 07:06:52;;;;;;;1.77;0.68;;;;;;;16.91;48.33;103498.72;5056765;28;20094;-77
2022/01/22 07:09:17;;;;;;;1.90;0.50;;;;;;;16.91;48.54;103496.13;5056950;28;20028;-75
2022/01/22 07:11:43;;;;;;;1.13;0.60;;;;;;;16.93;48.55;103491.84;5040060;28;20119;-75
2022/01/22 07:14:08;;;;;;;4.13;0.70;;;;;;;16.94;48.65;103498.84;5056526;28;20356;-75
2022/01/22 07:16:34;;;;;;;1.83;0.70;;;;;;;16.96;48.57;103497.19;5074197;28;20043;-75
2022/01/22 07:19:01;;;;;;;1.55;0.60;;;;;;;16.96;48.61;103496.28;5074439;28;20029;-75
2022/01/22 07:21:29;;;;;;;0.90;0.50;;;;;;;16.95;48.63;103495.41;5056916;28;20108;-75
2022/01/22 07:24:22;;;;;;;2.08;0.60;;;;;;;16.97;48.66;103493.75;5074146;28;20055;-75
2022/01/22 07:26:40;;;;;;;1.73;0.63;;;;;;;16.97;48.65;103498.94;5074033;28;20027;-75
2022/01/22 07:29:06;;;;;;;1.30;0.50;;;;;;;16.98;48.58;103503.31;5056420;28;20383;-75
2022/01/22 07:31:31;;;;;;;1.77;0.50;;;;;;;16.99;48.57;103501.63;5056906;28;20131;-76
2022/01/22 07:33:56;;;;;;;2.72;0.50;;;;;;;17.00;48.42;103503.38;5040121;28;20058;-76
2022/01/22 07:36:22;;;;;;;1.27;0.50;;;;;;;17.00;48.60;103496.44;5056446;28;20043;-76
2022/01/22 07:38:47;;;;;;;1.27;0.40;;;;;;;17.01;48.79;103499.94;5055151;28;20025;-76
2022/01/22 07:41:13;;;;;;;1.50;0.57;;;;;;;17.00;48.54;103491.22;5054065;28;20029;-76
2022/01/22 07:43:38;;;;;;;0.98;0.40;;;;;;;17.00;48.61;103488.63;5036372;28;20035;-76
2022/01/22 07:46:06;;;;;;;1.05;0.50;;;;;;;17.01;48.63;103484.34;5036252;28;20029;-76
2022/01/22 07:48:31;;;;;;;1.13;0.50;;;;;;;17.02;48.69;103496.50;5054286;28;20031;-76
2022/01/22 07:50:57;;;;;;;0.95;0.43;;;;;;;17.02;48.59;103489.56;5036501;28;20116;-76
2022/01/22 07:53:24;;;;;;;2.15;0.57;;;;;;;17.02;48.60;103489.56;5036032;28;20495;-76
2022/01/22 07:55:50;;;;;;;1.67;0.57;;;;;;;17.03;48.73;103491.38;5053880;28;20032;-76
2022/01/22 07:58:16;;;;;;;2.30;0.68;;;;;;;17.03;48.68;103490.47;5036277;28;20525;-76
2022/01/22 08:00:41;;;;;;;1.75;0.60;;;;;;;17.03;48.69;103491.38;5036353;28;20037;-75
2022/01/22 08:03:08;;;;;;;4.32;0.57;;;;;;;17.11;48.52;103490.72;5036747;28;20040;-78
2022/01/22 08:05:34;;;;;;;2.22;0.82;;;;;;;17.19;48.59;103484.09;5019794;28;20029;-78
2022/01/22 08:07:59;;;;;;;7.28;1.25;;;;;;;17.08;48.28;103485.44;5035415;28;20021;-77
2022/01/22 08:10:25;;;;;;;3.00;0.80;;;;;;;17.00;48.75;103480.84;5036148;28;20060;-77
2022/01/22 08:12:51;;;;;;;2.65;0.80;;;;;;;16.95;48.58;103484.13;5036295;28;20036;-77
2022/01/22 08:15:17;;;;;;;3.30;1.10;;;;;;;16.86;47.61;103482.97;5053761;28;20033;-77
2022/01/22 08:17:43;;;;;;;5.05;1.45;;;;;;;16.88;47.79;103482.16;5035876;28;20232;-77
2022/01/22 08:20:14;;;;;;;9.50;1.80;;;;;;;16.91;47.31;103484.84;5036145;28;20060;-78
2022/01/22 08:22:41;;;;;;;6.20;1.40;;;;;;;16.92;48.23;103482.31;5054258;28;20498;-79
2022/01/22 08:25:07;;;;;;;5.07;1.38;;;;;;;16.99;47.93;103486.88;5037449;28;20033;-79
2022/01/22 08:27:35;;;;;;;6.93;1.35;;;;;;;17.04;47.82;103481.84;5037031;28;20383;-78
2022/01/22 08:30:00;;;;;;;8.40;1.30;;;;;;;17.07;48.00;103484.53;5053799;28;20025;-78
2022/01/22 08:37:45;;;;;;;5.47;1.23;;;;;;;17.13;48.17;103492.56;5053483;28;20059;-78
2022/01/22 08:40:11;;;;;;;4.57;1.50;;;;;;;17.13;48.16;103492.56;5048061;28;20076;-78
2022/01/22 08:42:37;;;;;;;3.25;1.17;;;;;;;17.16;48.26;103499.56;5055717;28;20033;-78
2022/01/22 08:45:04;;;;;;;7.65;1.33;;;;;;;17.16;48.41;103504.78;5073590;28;20058;-78
2022/01/22 08:47:29;;;;;;;3.72;1.20;;;;;;;17.17;48.44;103507.44;5039340;28;20429;-78
2022/01/22 08:49:55;;;;;;;5.95;1.25;;;;;;;17.17;48.24;103510.03;5039362;28;20119;-78
2022/01/22 08:52:25;;;;;;;5.75;1.63;;;;;;;17.18;48.32;103498.81;5039309;28;20402;-78
2022/01/22 08:54:50;;;;;;;2.72;0.93;;;;;;;17.19;48.53;103499.69;5073398;28;20024;-78
2022/01/22 08:57:17;;;;;;;5.10;1.08;;;;;;;17.19;48.53;103504.91;5055462;28;20035;-78
2022/01/22 08:59:43;;;;;;;3.85;0.90;;;;;;;17.20;48.49;103493.66;5055742;28;20029;-78
2022/01/22 09:02:08;;;;;;;4.13;1.23;;;;;;;17.22;48.29;103491.97;5025331;28;20039;-77
2022/01/22 09:04:34;;;;;;;3.45;1.00;;;;;;;17.30;48.49;103487.06;5055438;28;20119;-77
2022/01/22 09:07:00;;;;;;;4.10;1.17;;;;;;;17.31;48.37;103483.59;5083118;28;20099;-86
2022/01/22 09:09:44;;;;;;;4.03;1.20;;;;;;;17.33;48.52;103490.63;5073053;28;20032;-84
2022/01/22 09:12:19;;;;;;;5.63;1.17;;;;;;;17.31;48.65;103500.13;5070239;28;20024;-83
2022/01/22 09:15:07;;;;;;;6.00;1.30;;;;;;;17.30;48.72;103500.94;5070447;28;20032;-85
2022/01/22 09:21:36;;;;;;;3.45;1.10;;;;;;;17.29;48.88;103512.19;5094894;28;20028;-85
2022/01/22 09:27:24;;;;;;;3.35;1.02;;;;;;;17.28;48.78;103507.81;5096508;28;20050;-84
2022/01/22 09:42:41;;;;;;;5.05;1.02;;;;;;;17.34;48.73;103531.44;5056016;28;20079;-83
2022/01/22 09:45:08;;;;;;;2.38;0.90;;;;;;;17.36;48.92;103527.19;5052871;28;20045;-80
2022/01/22 09:47:35;;;;;;;2.53;0.90;;;;;;;17.42;48.59;103527.41;5037612;28;20043;-81
2022/01/22 09:50:21;;;;;;;2.88;1.10;;;;;;;17.53;48.56;103538.19;5039717;28;20021;-84
2022/01/22 09:52:47;;;;;;;4.15;1.00;;;;;;;17.63;48.50;103539.34;5037504;28;20460;-77
2022/01/22 09:55:13;;;;;;;2.22;0.90;;;;;;;17.53;48.77;103546.00;5036398;28;20040;-78
2022/01/22 09:57:39;;;;;;;3.78;0.80;;;;;;;17.52;48.93;103548.53;5018408;28;20412;-78
2022/01/22 10:00:13;;;;;;;6.38;1.10;;;;;;;17.50;49.66;103558.88;5019448;28;20030;-77
2022/01/22 10:02:45;;;;;;;5.18;1.20;;;;;;;17.17;52.92;103562.09;5034765;28;20032;-78
2022/01/22 10:05:36;;;;;;;5.82;1.10;;;;;;;16.95;55.79;103557.84;5034608;28;20084;-79
2022/01/22 10:08:20;;;;;;;7.15;1.27;;;;;;;16.77;55.14;103559.75;5036100;28;20036;-79
2022/01/22 10:10:47;;;;;;;4.80;1.25;;;;;;;16.68;55.36;103557.69;5036336;28;20037;-80
2022/01/22 10:13:13;;;;;;;3.92;1.00;;;;;;;16.63;54.91;103552.28;5036086;28;20467;-78
2022/01/22 10:15:39;;;;;;;1.75;0.80;;;;;;;16.60;55.94;103552.19;5034787;28;20092;-80
2022/01/22 10:18:06;;;;;;;2.50;1.10;;;;;;;16.64;57.07;103558.38;5051165;28;20036;-79
2022/01/22 10:20:34;;;;;;;3.38;0.90;;;;;;;16.62;56.79;103553.13;5051814;28;20045;-81
2022/01/22 10:23:10;;;;;;;2.63;0.90;;;;;;;16.62;55.83;103558.31;5050223;28;20029;-82
2022/01/22 10:25:43;;;;;;;3.92;1.00;;;;;;;16.61;55.61;103553.97;5051831;28;20083;-83
2022/01/22 10:28:14;;;;;;;4.93;0.80;;;;;;;16.62;55.44;103557.44;5035386;28;20033;-83
2022/01/22 10:30:43;;;;;;;2.63;0.98;;;;;;;16.58;57.05;103560.75;5039468;28;20025;-82
2022/01/22 10:33:35;;;;;;;3.55;0.90;;;;;;;16.62;58.61;103560.91;5022241;28;20096;-80
2022/01/22 10:36:14;;;;;;;2.85;0.85;;;;;;;16.61;58.33;103556.56;5039281;28;20024;-81
2022/01/22 10:38:52;;;;;;;3.13;0.98;;;;;;;16.60;56.36;103551.31;5040484;28;20496;-78
2022/01/22 10:41:38;;;;;;;3.42;0.80;;;;;;;16.60;57.17;103554.78;5037309;28;20134;-80
2022/01/22 10:44:07;;;;;;;2.20;0.90;;;;;;;16.63;57.31;103551.41;5037836;28;20067;-81
2022/01/22 10:47:02;;;;;;;1.58;0.75;;;;;;;16.60;56.91;103559.97;5020615;28;20397;-80
2022/01/22 10:49:28;;;;;;;2.85;1.02;;;;;;;16.64;57.86;103561.00;5038222;28;20032;-80
2022/01/22 10:52:10;;;;;;;4.07;0.73;;;;;;;16.66;59.87;103565.41;5034082;28;20025;-80
2022/01/22 10:54:38;;;;;;;2.35;0.73;;;;;;;16.67;56.52;103568.91;5037865;28;20025;-80
2022/01/22 10:57:12;;;;;;;1.75;0.80;;;;;;;16.68;56.49;103573.28;5017613;28;20436;-80
2022/01/22 10:59:46;;;;;;;4.55;0.95;;;;;;;16.70;57.37;103563.81;5033867;28;20029;-80
2022/01/22 11:02:12;;;;;;;2.60;0.90;;;;;;;16.73;56.76;103563.06;5034294;28;20018;-81
2022/01/22 11:04:42;;;;;;;3.13;0.90;;;;;;;16.74;57.87;103564.81;5033844;28;20029;-80
2022/01/22 11:07:14;;;;;;;1.88;0.77;;;;;;;16.74;58.81;103568.28;5033942;28;20021;-80
2022/01/22 11:09:40;;;;;;;2.42;1.00;;;;;;;16.75;55.99;103572.69;5033939;28;20040;-80
2022/01/22 11:12:06;;;;;;;3.30;0.90;;;;;;;16.77;56.25;103575.34;5034739;28;20033;-81
2022/01/22 11:14:34;;;;;;;2.53;0.93;;;;;;;16.80;58.89;103583.28;5033549;28;20052;-80
2022/01/22 11:17:00;;;;;;;4.57;1.08;;;;;;;16.80;57.71;103580.69;5033640;28;20021;-80
2022/01/22 11:19:33;;;;;;;3.10;0.95;;;;;;;16.81;56.84;103579.84;5035163;28;20029;-79
2022/01/22 11:22:08;;;;;;;2.75;0.93;;;;;;;16.78;56.34;103575.38;5033291;28;20037;-79
2022/01/22 11:24:37;;;;;;;2.40;0.90;;;;;;;16.80;58.61;103578.06;5033589;28;20033;-80
2022/01/22 11:27:05;;;;;;;4.78;1.15;;;;;;;16.79;57.08;103571.97;5034730;28;20380;-80
2022/01/22 11:29:42;;;;;;;3.90;0.77;;;;;;;16.81;57.98;103566.81;5017051;28;20490;-80
2022/01/22 11:32:10;;;;;;;4.25;1.00;;;;;;;16.81;57.88;103559.03;5033318;28;20036;-79
2022/01/22 11:34:38;;;;;;;1.70;0.80;;;;;;;16.82;57.01;103564.28;5033598;28;20113;-80
2022/01/22 11:37:15;;;;;;;2.28;0.80;;;;;;;16.84;58.33;103570.44;5033502;28;20029;-80
2022/01/22 11:39:41;;;;;;;3.08;0.80;;;;;;;16.89;57.04;103565.41;5033052;28;20057;-80
2022/01/22 11:42:08;;;;;;;2.38;0.95;;;;;;;16.89;57.17;103559.31;5032629;28;20116;-80
2022/01/22 11:44:47;;;;;;;2.95;0.80;;;;;;;16.90;57.72;103569.78;5016608;28;20387;-80
2022/01/22 11:47:15;;;;;;;1.73;0.80;;;;;;;16.89;56.56;103562.81;5032930;28;20464;-80
2022/01/22 11:50:00;;;;;;;3.40;0.82;;;;;;;16.91;56.58;103555.06;5033249;28;20353;-80
2022/01/22 11:52:29;;;;;;;2.78;0.93;;;;;;;16.92;56.81;103556.81;5034587;28;20025;-79
2022/01/22 11:55:00;;;;;;;1.92;0.70;;;;;;;16.96;57.57;103550.91;5036020;28;20052;-81
2022/01/22 11:57:28;;;;;;;1.90;0.82;;;;;;;16.95;57.02;103557.84;5033283;28;20468;-79
2022/01/22 12:00:18;;;;;;;2.58;1.02;;;;;;;16.98;56.11;103562.25;5034055;28;20467;-80
2022/01/22 12:02:44;;;;;;;2.45;0.95;;;;;;;16.96;56.53;103567.44;5033393;28;20155;-79
2022/01/22 12:05:09;;;;;;;3.92;1.00;;;;;;;16.99;56.15;103561.44;5037136;28;20064;-79
2022/01/22 12:07:36;;;;;;;3.60;0.70;;;;;;;16.99;55.36;103559.72;5017239;28;20033;-81
2022/01/22 12:15:40;;;;;;;;;;;;;;;16.99;55.71;103561.44;5034478;28;20095;-80
2022/01/22 12:18:13;;;;;;;4.00;0.80;;;;;;;17.04;56.87;103562.47;5032883;28;19913;-80
2022/01/22 12:23:39;;;;;;;2.33;0.95;;;;;;;17.00;55.10;103564.06;5036915;28;20483;-81
2022/01/22 12:26:05;;;;;;;2.20;0.93;;;;;;;17.05;56.76;103567.75;5032694;28;20379;-79
2022/01/22 12:28:39;;;;;;;3.10;1.00;;;;;;;17.08;56.71;103566.09;5016242;28;20025;-79
2022/01/22 12:31:17;;;;;;;3.33;0.90;;;;;;;17.04;55.04;103557.28;5032659;28;20499;-79
2022/01/22 12:33:42;;;;;;;2.30;0.93;;;;;;;17.00;55.36;103553.66;5032828;28;20029;-79
2022/01/22 12:36:18;;;;;;;1.52;1.00;;;;;;;17.03;57.07;103551.19;5034021;28;20025;-80
2022/01/22 12:38:49;;;;;;;2.55;0.88;;;;;;;17.03;55.02;103545.13;5032558;28;20400;-79
2022/01/22 12:41:47;;;;;;;2.83;0.80;;;;;;;17.01;54.56;103550.25;5032413;28;20033;-79
2022/01/22 12:44:28;;;;;;;2.85;0.88;;;;;;;17.06;56.96;103550.41;5033778;28;20022;-79
2022/01/22 12:46:58;;;;;;;5.07;0.93;;;;;;;17.05;56.10;103549.53;5049202;28;20021;-82
2022/01/22 12:49:25;;;;;;;3.10;1.08;;;;;;;17.02;54.83;103559.81;5016939;28;20053;-80
2022/01/22 12:51:55;;;;;;;2.95;0.80;;;;;;;17.06;56.23;103561.69;5016602;28;20502;-81
2022/01/22 12:54:28;;;;;;;2.53;0.90;;;;;;;17.03;54.60;103566.81;5035817;28;20029;-80
2022/01/22 12:57:05;;;;;;;1.50;0.82;;;;;;;17.06;56.56;103572.09;5037290;28;20053;-80
2022/01/22 12:59:34;;;;;;;1.58;0.80;;;;;;;17.12;56.92;103575.78;5037425;28;20025;-79
2022/01/22 13:02:00;;;;;;;2.63;0.90;;;;;;;17.07;55.84;103567.78;5035899;28;20021;-79
2022/01/22 13:04:25;;;;;;;1.20;0.80;;;;;;;17.07;56.69;103565.19;5019718;28;20044;-79
2022/01/22 13:06:53;;;;;;;1.83;0.75;;;;;;;17.11;55.65;103574.00;5036120;28;20021;-79
2022/01/22 13:09:19;;;;;;;3.13;0.80;;;;;;;17.09;55.37;103575.66;5020100;28;20029;-79
2022/01/22 13:11:52;;;;;;;3.67;0.80;;;;;;;17.09;56.78;103568.72;5038373;28;20434;-80
2022/01/22 13:14:30;;;;;;;1.27;0.70;;;;;;;17.11;55.22;103574.00;5036262;28;20025;-80
2022/01/22 13:16:56;;;;;;;1.67;0.82;;;;;;;17.11;56.08;103569.66;5035762;28;20464;-78
2022/01/22 13:19:24;;;;;;;2.03;1.02;;;;;;;17.19;55.25;103569.97;5037191;28;20034;-77
2022/01/22 13:21:51;;;;;;;1.77;0.80;;;;;;;17.31;54.23;103569.50;5035728;28;20109;-77
2022/01/22 13:24:16;;;;;;;1.88;0.82;;;;;;;17.33;53.88;103570.44;5037029;28;20030;-78